Погода Смолярына 2 недели

Минская область, Белоруссия

24 мая-06 июня
  • 24мая
    Сегодня
    +11°
    +25°
    Ясно и безоблачно
    ВремяПогодаТемператураВлажностьДавлениеВетер, м/сВероятность осадков
    00:00Облачно с прояснениями+16°C73 %753 мм4.5 м/с2 %
    03:00Ясно и безоблачно+14°C64 %754 мм3.9 м/с2 %
    06:00Облачно с прояснениями+12°C69 %755 мм3.9 м/с2 %
    09:00Ясно и безоблачно+18°C64 %755 мм4.7 м/с2 %
    12:00Ясно и безоблачно+22°C54 %756 мм4.7 м/с2 %
    15:00Ясно и безоблачно+24°C47 %755 мм4.9 м/с2 %
    18:00Ясно и безоблачно+24°C48 %755 мм4.6 м/с2 %
    21:00Ясно и безоблачно+20°C61 %755 мм3.6 м/с2 %
  • 25мая
    Суббота
    +10°
    +25°
    Небольшая облачность
    ВремяПогодаТемператураВлажностьДавлениеВетер, м/сВероятность осадков
    00:00Ясно и безоблачно+15°C65 %755 мм3.7 м/с2 %
    03:00Ясно и безоблачно+13°C69 %755 мм3.4 м/с2 %
    06:00Ясно и безоблачно+12°C71 %755 мм3.5 м/с2 %
    09:00Ясно и безоблачно+18°C64 %755 мм3.3 м/с2 %
    12:00Ясно и безоблачно+23°C54 %755 мм3.3 м/с2 %
    15:00Небольшая облачность+25°C41 %754 мм3.8 м/с3 %
    18:00Облачно с прояснениями+25°C45 %753 мм3.0 м/с11 %
    21:00Облачно с прояснениями+20°C71 %753 мм2.2 м/с4 %
  • 26мая
    Воскресенье
    +11°
    +26°
    Практически безоблачно
    ВремяПогодаТемператураВлажностьДавлениеВетер, м/сВероятность осадков
    00:00Небольшая облачность+16°C70 %753 мм1.0 м/с2 %
    03:00Практически безоблачно+12°C84 %753 мм2.0 м/с2 %
    06:00Ясно и безоблачно+13°C81 %753 мм1.5 м/с2 %
    09:00Ясно и безоблачно+18°C62 %754 мм0.9 м/с2 %
    12:00Ясно и безоблачно+23°C41 %754 мм1.2 м/с2 %
    15:00Практически безоблачно+25°C39 %754 мм1.0 м/с2 %
    18:00Практически безоблачно+25°C35 %753 мм1.8 м/с2 %
    21:00Практически безоблачно+20°C66 %753 мм1.9 м/с2 %
  • 27мая
    Понедельник
    +13°
    +26°
    Ясно и безоблачно
    ВремяПогодаТемператураВлажностьДавлениеВетер, м/сВероятность осадков
    00:00Ясно и безоблачно+15°C74 %753 мм1.7 м/с2 %
    03:00Практически безоблачно+13°C83 %753 мм2.0 м/с2 %
    06:00Ясно и безоблачно+13°C79 %753 мм1.9 м/с2 %
    09:00Ясно и безоблачно+20°C61 %754 мм1.6 м/с2 %
    12:00Практически безоблачно+24°C40 %754 мм3.3 м/с2 %
    15:00Ясно и безоблачно+25°C41 %753 мм2.9 м/с7 %
    18:00Практически безоблачно+25°C43 %752 мм2.3 м/с22 %
    21:00Ясно и безоблачно+21°C70 %752 мм1.8 м/с6 %
  • 28мая
    Вторник
    +13°
    +25°
    Практически безоблачно
    ВремяПогодаТемператураВлажностьДавлениеВетер, м/сВероятность осадков
    00:00Ясно и безоблачно+17°C79 %752 мм2.3 м/с2 %
    03:00Ясно и безоблачно+14°C87 %752 мм2.1 м/с2 %
    06:00Ясно и безоблачно+14°C87 %752 мм1.9 м/с2 %
    09:00Ясно и безоблачно+20°C67 %752 мм1.3 м/с2 %
    12:00Практически безоблачно+24°C43 %752 мм2.7 м/с11 %
    15:00Практически безоблачно+25°C46 %751 мм2.1 м/с18 %
    18:00Небольшая облачность+24°C47 %751 мм1.5 м/с17 %
    21:00Ясно и безоблачно+20°C75 %750 мм1.8 м/с3 %
Мы используем cookies
Соглашаюсь